sensor_id;sensor_type;location;lat;lon;timestamp;temperature;humidity
64685;DHT22;51109;47.414;18.954;2022-12-07T00:01:29;2.20;99.90
64685;DHT22;51109;47.414;18.954;2022-12-07T00:03:56;2.30;99.90
64685;DHT22;51109;47.414;18.954;2022-12-07T00:06:33;2.40;99.90
64685;DHT22;51109;47.414;18.954;2022-12-07T00:09:00;2.50;99.90
64685;DHT22;51109;47.414;18.954;2022-12-07T00:11:26;2.60;99.90
64685;DHT22;51109;47.414;18.954;2022-12-07T00:13:54;2.70;99.90
64685;DHT22;51109;47.414;18.954;2022-12-07T00:16:23;2.70;99.90
64685;DHT22;51109;47.414;18.954;2022-12-07T00:18:49;2.70;99.90
64685;DHT22;51109;47.414;18.954;2022-12-07T00:21:19;2.80;99.90
64685;DHT22;51109;47.414;18.954;2022-12-07T00:23:46;2.70;99.90
64685;DHT22;51109;47.414;18.954;2022-12-07T00:26:27;2.60;99.90
64685;DHT22;51109;47.414;18.954;2022-12-07T00:28:55;2.50;99.90
64685;DHT22;51109;47.414;18.954;2022-12-07T00:31:25;2.40;99.90
64685;DHT22;51109;47.414;18.954;2022-12-07T00:33:51;2.40;99.90
64685;DHT22;51109;47.414;18.954;2022-12-07T00:36:20;2.30;99.90
64685;DHT22;51109;47.414;18.954;2022-12-07T00:38:46;2.30;99.90
64685;DHT22;51109;47.414;18.954;2022-12-07T00:41:20;2.30;99.90
64685;DHT22;51109;47.414;18.954;2022-12-07T00:43:47;2.40;99.90
64685;DHT22;51109;47.414;18.954;2022-12-07T00:46:15;2.40;99.90
64685;DHT22;51109;47.414;18.954;2022-12-07T00:48:41;2.50;99.90
64685;DHT22;51109;47.414;18.954;2022-12-07T00:51:10;2.60;99.90
64685;DHT22;51109;47.414;18.954;2022-12-07T00:53:37;2.60;99.90
64685;DHT22;51109;47.414;18.954;2022-12-07T00:56:07;2.60;99.90
64685;DHT22;51109;47.414;18.954;2022-12-07T00:58:34;2.60;99.90
64685;DHT22;51109;47.414;18.954;2022-12-07T01:01:00;2.60;99.90
64685;DHT22;51109;47.414;18.954;2022-12-07T01:03:28;2.50;99.90
64685;DHT22;51109;47.414;18.954;2022-12-07T01:05:55;2.40;99.90
64685;DHT22;51109;47.414;18.954;2022-12-07T01:08:23;2.20;99.90
64685;DHT22;51109;47.414;18.954;2022-12-07T01:10:56;2.20;99.90
64685;DHT22;51109;47.414;18.954;2022-12-07T01:13:23;2.20;99.90
64685;DHT22;51109;47.414;18.954;2022-12-07T01:15:48;2.20;99.90
64685;DHT22;51109;47.414;18.954;2022-12-07T01:18:14;2.10;99.90
64685;DHT22;51109;47.414;18.954;2022-12-07T01:20:40;2.10;99.90
64685;DHT22;51109;47.414;18.954;2022-12-07T01:23:06;2.10;99.90
64685;DHT22;51109;47.414;18.954;2022-12-07T01:25:32;2.00;99.90
64685;DHT22;51109;47.414;18.954;2022-12-07T01:27:58;1.90;99.90
64685;DHT22;51109;47.414;18.954;2022-12-07T01:30:24;1.90;99.90
64685;DHT22;51109;47.414;18.954;2022-12-07T01:32:50;1.80;99.90
64685;DHT22;51109;47.414;18.954;2022-12-07T01:35:15;1.70;99.90
64685;DHT22;51109;47.414;18.954;2022-12-07T01:37:41;1.60;99.90
64685;DHT22;51109;47.414;18.954;2022-12-07T01:40:09;1.70;99.90
64685;DHT22;51109;47.414;18.954;2022-12-07T01:42:35;1.70;99.90
64685;DHT22;51109;47.414;18.954;2022-12-07T01:45:39;1.80;99.90
64685;DHT22;51109;47.414;18.954;2022-12-07T01:48:06;1.90;99.90
64685;DHT22;51109;47.414;18.954;2022-12-07T01:50:33;1.90;99.90
64685;DHT22;51109;47.414;18.954;2022-12-07T01:53:02;2.00;99.90
64685;DHT22;51109;47.414;18.954;2022-12-07T01:55:30;2.00;99.90
64685;DHT22;51109;47.414;18.954;2022-12-07T01:57:56;2.00;99.90
64685;DHT22;51109;47.414;18.954;2022-12-07T02:05:27;2.20;99.90
64685;DHT22;51109;47.414;18.954;2022-12-07T02:07:55;2.20;99.90
64685;DHT22;51109;47.414;18.954;2022-12-07T02:10:31;2.20;99.90
64685;DHT22;51109;47.414;18.954;2022-12-07T02:13:19;2.20;99.90
64685;DHT22;51109;47.414;18.954;2022-12-07T02:23:53;2.10;99.90
64685;DHT22;51109;47.414;18.954;2022-12-07T02:29:12;2.10;99.90
64685;DHT22;51109;47.414;18.954;2022-12-07T02:31:50;2.10;99.90
64685;DHT22;51109;47.414;18.954;2022-12-07T02:34:49;2.10;99.90
64685;DHT22;51109;47.414;18.954;2022-12-07T02:37:29;2.20;99.90
64685;DHT22;51109;47.414;18.954;2022-12-07T02:42:42;2.10;99.90
64685;DHT22;51109;47.414;18.954;2022-12-07T02:45:09;2.10;99.90
64685;DHT22;51109;47.414;18.954;2022-12-07T02:47:37;2.10;99.90
64685;DHT22;51109;47.414;18.954;2022-12-07T02:50:05;2.20;99.90
64685;DHT22;51109;47.414;18.954;2022-12-07T02:52:31;2.30;99.90
64685;DHT22;51109;47.414;18.954;2022-12-07T02:54:56;2.30;99.90
64685;DHT22;51109;47.414;18.954;2022-12-07T03:00:18;2.40;99.90
64685;DHT22;51109;47.414;18.954;2022-12-07T03:11:16;2.50;99.90
64685;DHT22;51109;47.414;18.954;2022-12-07T03:19:06;2.60;99.90
64685;DHT22;51109;47.414;18.954;2022-12-07T03:21:51;2.60;99.90
64685;DHT22;51109;47.414;18.954;2022-12-07T03:24:22;2.60;99.90
64685;DHT22;51109;47.414;18.954;2022-12-07T03:26:54;2.60;99.90
64685;DHT22;51109;47.414;18.954;2022-12-07T03:29:28;2.60;99.90
64685;DHT22;51109;47.414;18.954;2022-12-07T03:34:47;2.70;99.90
64685;DHT22;51109;47.414;18.954;2022-12-07T03:37:29;2.70;99.90
64685;DHT22;51109;47.414;18.954;2022-12-07T03:40:04;2.60;99.90
64685;DHT22;51109;47.414;18.954;2022-12-07T03:42:32;2.60;99.90
64685;DHT22;51109;47.414;18.954;2022-12-07T03:44:59;2.70;99.90
64685;DHT22;51109;47.414;18.954;2022-12-07T03:47:47;2.60;99.90
64685;DHT22;51109;47.414;18.954;2022-12-07T03:50:25;2.60;99.90
64685;DHT22;51109;47.414;18.954;2022-12-07T03:53:19;2.60;99.90
64685;DHT22;51109;47.414;18.954;2022-12-07T03:55:47;2.60;99.90
64685;DHT22;51109;47.414;18.954;2022-12-07T03:58:17;2.60;99.90
64685;DHT22;51109;47.414;18.954;2022-12-07T04:00:45;2.60;99.90
64685;DHT22;51109;47.414;18.954;2022-12-07T04:03:14;2.60;99.90
64685;DHT22;51109;47.414;18.954;2022-12-07T04:05:40;2.60;99.90
64685;DHT22;51109;47.414;18.954;2022-12-07T04:08:07;2.60;99.90
64685;DHT22;51109;47.414;18.954;2022-12-07T04:10:33;2.70;99.90
64685;DHT22;51109;47.414;18.954;2022-12-07T04:12:59;2.80;99.90
64685;DHT22;51109;47.414;18.954;2022-12-07T04:15:25;3.00;99.90
64685;DHT22;51109;47.414;18.954;2022-12-07T04:17:51;3.10;99.90
64685;DHT22;51109;47.414;18.954;2022-12-07T04:20:16;3.20;99.90
64685;DHT22;51109;47.414;18.954;2022-12-07T04:22:43;3.20;99.90
64685;DHT22;51109;47.414;18.954;2022-12-07T04:25:08;3.30;99.90
64685;DHT22;51109;47.414;18.954;2022-12-07T04:27:34;3.30;99.90
64685;DHT22;51109;47.414;18.954;2022-12-07T04:30:00;3.30;99.90
64685;DHT22;51109;47.414;18.954;2022-12-07T04:32:26;3.30;99.90
64685;DHT22;51109;47.414;18.954;2022-12-07T04:34:52;3.30;99.90
64685;DHT22;51109;47.414;18.954;2022-12-07T04:37:18;3.30;99.90
64685;DHT22;51109;47.414;18.954;2022-12-07T04:39:45;3.30;99.90
64685;DHT22;51109;47.414;18.954;2022-12-07T04:42:10;3.30;99.90
64685;DHT22;51109;47.414;18.954;2022-12-07T04:44:38;3.30;99.90
64685;DHT22;51109;47.414;18.954;2022-12-07T04:47:04;3.30;99.90
64685;DHT22;51109;47.414;18.954;2022-12-07T04:49:30;3.30;99.90
64685;DHT22;51109;47.414;18.954;2022-12-07T04:51:56;3.40;99.90
64685;DHT22;51109;47.414;18.954;2022-12-07T04:54:22;3.40;99.90
64685;DHT22;51109;47.414;18.954;2022-12-07T04:56:48;3.40;99.90
64685;DHT22;51109;47.414;18.954;2022-12-07T04:59:16;3.40;99.90
64685;DHT22;51109;47.414;18.954;2022-12-07T05:01:42;3.40;99.90
64685;DHT22;51109;47.414;18.954;2022-12-07T05:04:08;3.40;99.90
64685;DHT22;51109;47.414;18.954;2022-12-07T05:06:34;3.40;99.90
64685;DHT22;51109;47.414;18.954;2022-12-07T05:09:00;3.40;99.90
64685;DHT22;51109;47.414;18.954;2022-12-07T05:11:26;3.40;99.90
64685;DHT22;51109;47.414;18.954;2022-12-07T05:14:24;3.40;99.90
64685;DHT22;51109;47.414;18.954;2022-12-07T05:16:50;3.40;99.90
64685;DHT22;51109;47.414;18.954;2022-12-07T05:19:18;3.40;99.90
64685;DHT22;51109;47.414;18.954;2022-12-07T05:21:44;3.40;99.90
64685;DHT22;51109;47.414;18.954;2022-12-07T05:24:12;3.40;99.90
64685;DHT22;51109;47.414;18.954;2022-12-07T05:26:38;3.40;99.90
64685;DHT22;51109;47.414;18.954;2022-12-07T05:29:04;3.40;99.90
64685;DHT22;51109;47.414;18.954;2022-12-07T05:31:31;3.50;99.90
64685;DHT22;51109;47.414;18.954;2022-12-07T05:33:56;3.50;99.90
64685;DHT22;51109;47.414;18.954;2022-12-07T05:36:23;3.50;99.90
64685;DHT22;51109;47.414;18.954;2022-12-07T05:38:49;3.50;99.90
64685;DHT22;51109;47.414;18.954;2022-12-07T05:41:17;3.50;99.90
64685;DHT22;51109;47.414;18.954;2022-12-07T05:44:02;3.50;99.90
64685;DHT22;51109;47.414;18.954;2022-12-07T05:46:28;3.50;99.90
64685;DHT22;51109;47.414;18.954;2022-12-07T05:48:54;3.50;99.90
64685;DHT22;51109;47.414;18.954;2022-12-07T05:51:20;3.40;99.90
64685;DHT22;51109;47.414;18.954;2022-12-07T05:53:46;3.40;99.90
64685;DHT22;51109;47.414;18.954;2022-12-07T05:56:12;3.30;99.90
64685;DHT22;51109;47.414;18.954;2022-12-07T05:58:38;3.20;99.90
64685;DHT22;51109;47.414;18.954;2022-12-07T06:01:23;3.20;99.90
64685;DHT22;51109;47.414;18.954;2022-12-07T06:03:49;3.20;99.90
64685;DHT22;51109;47.414;18.954;2022-12-07T06:06:15;3.20;99.90
64685;DHT22;51109;47.414;18.954;2022-12-07T06:08:41;3.20;99.90
64685;DHT22;51109;47.414;18.954;2022-12-07T06:11:06;3.10;99.90
64685;DHT22;51109;47.414;18.954;2022-12-07T06:13:51;3.10;99.90
64685;DHT22;51109;47.414;18.954;2022-12-07T06:16:17;3.10;99.90
64685;DHT22;51109;47.414;18.954;2022-12-07T06:18:43;3.10;99.90
64685;DHT22;51109;47.414;18.954;2022-12-07T06:21:09;3.10;99.90
64685;DHT22;51109;47.414;18.954;2022-12-07T06:23:35;3.10;99.90
64685;DHT22;51109;47.414;18.954;2022-12-07T06:26:00;3.10;99.90
64685;DHT22;51109;47.414;18.954;2022-12-07T06:28:26;3.20;99.90
64685;DHT22;51109;47.414;18.954;2022-12-07T06:31:00;3.20;99.90
64685;DHT22;51109;47.414;18.954;2022-12-07T06:33:27;3.20;99.90
64685;DHT22;51109;47.414;18.954;2022-12-07T06:35:53;3.20;99.90
64685;DHT22;51109;47.414;18.954;2022-12-07T06:38:20;3.20;99.90
64685;DHT22;51109;47.414;18.954;2022-12-07T06:40:45;3.20;99.90
64685;DHT22;51109;47.414;18.954;2022-12-07T06:43:11;3.10;99.90
64685;DHT22;51109;47.414;18.954;2022-12-07T06:45:37;3.00;99.90
64685;DHT22;51109;47.414;18.954;2022-12-07T06:48:03;3.00;99.90
64685;DHT22;51109;47.414;18.954;2022-12-07T06:50:29;3.00;99.90
64685;DHT22;51109;47.414;18.954;2022-12-07T06:52:55;3.00;99.90
64685;DHT22;51109;47.414;18.954;2022-12-07T06:55:21;3.00;99.90
64685;DHT22;51109;47.414;18.954;2022-12-07T06:57:47;3.00;99.90
64685;DHT22;51109;47.414;18.954;2022-12-07T07:00:13;3.00;99.90
64685;DHT22;51109;47.414;18.954;2022-12-07T07:02:39;3.00;99.90
64685;DHT22;51109;47.414;18.954;2022-12-07T07:05:05;3.10;99.90
64685;DHT22;51109;47.414;18.954;2022-12-07T07:07:31;3.20;99.90
64685;DHT22;51109;47.414;18.954;2022-12-07T07:09:57;3.20;99.90
64685;DHT22;51109;47.414;18.954;2022-12-07T07:12:24;3.30;99.90
64685;DHT22;51109;47.414;18.954;2022-12-07T07:14:49;3.30;99.90
64685;DHT22;51109;47.414;18.954;2022-12-07T07:17:15;3.30;99.90
64685;DHT22;51109;47.414;18.954;2022-12-07T07:19:41;3.40;99.90
64685;DHT22;51109;47.414;18.954;2022-12-07T07:22:07;3.50;99.90
64685;DHT22;51109;47.414;18.954;2022-12-07T07:24:33;3.50;99.90
64685;DHT22;51109;47.414;18.954;2022-12-07T07:26:59;3.50;99.90
64685;DHT22;51109;47.414;18.954;2022-12-07T07:29:25;3.60;99.90
64685;DHT22;51109;47.414;18.954;2022-12-07T07:31:51;3.60;99.90
64685;DHT22;51109;47.414;18.954;2022-12-07T07:34:17;3.70;99.90
64685;DHT22;51109;47.414;18.954;2022-12-07T07:36:43;3.70;99.90
64685;DHT22;51109;47.414;18.954;2022-12-07T07:39:10;3.70;99.90
64685;DHT22;51109;47.414;18.954;2022-12-07T07:41:38;3.70;99.90
64685;DHT22;51109;47.414;18.954;2022-12-07T07:44:04;3.80;99.90
64685;DHT22;51109;47.414;18.954;2022-12-07T07:46:30;3.80;99.90
64685;DHT22;51109;47.414;18.954;2022-12-07T07:48:56;3.80;99.90
64685;DHT22;51109;47.414;18.954;2022-12-07T07:51:22;3.90;99.90
64685;DHT22;51109;47.414;18.954;2022-12-07T07:53:48;3.90;99.90
64685;DHT22;51109;47.414;18.954;2022-12-07T07:56:14;4.00;99.90
64685;DHT22;51109;47.414;18.954;2022-12-07T07:58:40;4.00;99.90
64685;DHT22;51109;47.414;18.954;2022-12-07T08:01:07;4.10;99.90
64685;DHT22;51109;47.414;18.954;2022-12-07T08:03:33;4.10;99.90
64685;DHT22;51109;47.414;18.954;2022-12-07T08:05:59;4.10;99.90
64685;DHT22;51109;47.414;18.954;2022-12-07T08:08:25;4.20;99.90
64685;DHT22;51109;47.414;18.954;2022-12-07T08:10:51;4.20;99.90
64685;DHT22;51109;47.414;18.954;2022-12-07T08:13:16;4.20;99.90
64685;DHT22;51109;47.414;18.954;2022-12-07T08:15:44;4.20;99.90
64685;DHT22;51109;47.414;18.954;2022-12-07T08:18:11;4.20;99.90
64685;DHT22;51109;47.414;18.954;2022-12-07T08:20:38;4.10;99.90
64685;DHT22;51109;47.414;18.954;2022-12-07T08:23:05;4.10;99.90
64685;DHT22;51109;47.414;18.954;2022-12-07T08:25:32;4.10;99.90
64685;DHT22;51109;47.414;18.954;2022-12-07T08:27:58;4.10;99.90
64685;DHT22;51109;47.414;18.954;2022-12-07T08:30:26;4.00;99.90
64685;DHT22;51109;47.414;18.954;2022-12-07T08:32:52;4.00;99.90
64685;DHT22;51109;47.414;18.954;2022-12-07T08:35:19;4.10;99.90
64685;DHT22;51109;47.414;18.954;2022-12-07T08:37:45;4.20;99.90
64685;DHT22;51109;47.414;18.954;2022-12-07T08:40:12;4.20;99.90
64685;DHT22;51109;47.414;18.954;2022-12-07T08:42:42;4.30;99.90
64685;DHT22;51109;47.414;18.954;2022-12-07T08:45:14;4.40;99.90
64685;DHT22;51109;47.414;18.954;2022-12-07T08:47:46;4.50;99.90
64685;DHT22;51109;47.414;18.954;2022-12-07T08:50:14;4.60;99.90
64685;DHT22;51109;47.414;18.954;2022-12-07T08:52:40;4.60;99.90
64685;DHT22;51109;47.414;18.954;2022-12-07T08:55:10;4.80;99.90
64685;DHT22;51109;47.414;18.954;2022-12-07T08:57:37;4.90;99.90
64685;DHT22;51109;47.414;18.954;2022-12-07T09:00:04;5.10;99.90
64685;DHT22;51109;47.414;18.954;2022-12-07T09:02:31;5.20;99.90
64685;DHT22;51109;47.414;18.954;2022-12-07T09:04:57;5.20;99.90
64685;DHT22;51109;47.414;18.954;2022-12-07T09:07:23;5.20;99.90
64685;DHT22;51109;47.414;18.954;2022-12-07T09:09:50;5.30;99.90
64685;DHT22;51109;47.414;18.954;2022-12-07T09:12:16;5.30;99.90
64685;DHT22;51109;47.414;18.954;2022-12-07T09:14:41;5.40;99.90
64685;DHT22;51109;47.414;18.954;2022-12-07T09:17:09;5.50;99.90
64685;DHT22;51109;47.414;18.954;2022-12-07T09:19:36;5.40;99.90
64685;DHT22;51109;47.414;18.954;2022-12-07T09:22:02;5.40;99.90
64685;DHT22;51109;47.414;18.954;2022-12-07T09:24:28;5.50;99.90
64685;DHT22;51109;47.414;18.954;2022-12-07T09:26:54;5.40;99.90
64685;DHT22;51109;47.414;18.954;2022-12-07T09:29:20;5.40;99.90
64685;DHT22;51109;47.414;18.954;2022-12-07T09:31:46;5.40;99.90
64685;DHT22;51109;47.414;18.954;2022-12-07T09:34:12;5.40;99.90
64685;DHT22;51109;47.414;18.954;2022-12-07T09:36:38;5.30;99.90
64685;DHT22;51109;47.414;18.954;2022-12-07T09:39:04;5.40;99.90
64685;DHT22;51109;47.414;18.954;2022-12-07T09:41:31;5.40;99.90
64685;DHT22;51109;47.414;18.954;2022-12-07T09:44:10;5.40;99.90
64685;DHT22;51109;47.414;18.954;2022-12-07T09:46:39;5.50;99.90
64685;DHT22;51109;47.414;18.954;2022-12-07T09:49:19;5.70;99.90
64685;DHT22;51109;47.414;18.954;2022-12-07T09:51:46;5.80;99.90
64685;DHT22;51109;47.414;18.954;2022-12-07T09:54:16;5.80;99.90
64685;DHT22;51109;47.414;18.954;2022-12-07T09:56:43;5.70;99.90
64685;DHT22;51109;47.414;18.954;2022-12-07T09:59:16;5.80;99.90
64685;DHT22;51109;47.414;18.954;2022-12-07T10:01:44;5.90;99.90
64685;DHT22;51109;47.414;18.954;2022-12-07T10:04:14;5.90;99.90
64685;DHT22;51109;47.414;18.954;2022-12-07T10:06:41;5.90;99.90
64685;DHT22;51109;47.414;18.954;2022-12-07T10:09:16;5.90;99.90
64685;DHT22;51109;47.414;18.954;2022-12-07T10:12:18;6.00;99.90
64685;DHT22;51109;47.414;18.954;2022-12-07T10:14:55;6.00;99.90
64685;DHT22;51109;47.414;18.954;2022-12-07T10:17:32;6.00;99.90
64685;DHT22;51109;47.414;18.954;2022-12-07T10:23:04;6.10;99.90
64685;DHT22;51109;47.414;18.954;2022-12-07T10:25:36;6.00;99.90
64685;DHT22;51109;47.414;18.954;2022-12-07T10:31:02;6.00;99.90
64685;DHT22;51109;47.414;18.954;2022-12-07T10:33:53;6.00;99.90
64685;DHT22;51109;47.414;18.954;2022-12-07T10:36:24;6.10;99.90
64685;DHT22;51109;47.414;18.954;2022-12-07T10:39:15;6.10;99.90
64685;DHT22;51109;47.414;18.954;2022-12-07T10:42:02;6.10;99.90
64685;DHT22;51109;47.414;18.954;2022-12-07T10:44:31;6.20;99.90
64685;DHT22;51109;47.414;18.954;2022-12-07T10:55:41;6.30;99.90
64685;DHT22;51109;47.414;18.954;2022-12-07T11:01:33;6.30;99.90
64685;DHT22;51109;47.414;18.954;2022-12-07T11:12:56;6.40;99.90
64685;DHT22;51109;47.414;18.954;2022-12-07T11:15:29;6.40;99.90
64685;DHT22;51109;47.414;18.954;2022-12-07T11:36:56;7.00;99.90
64685;DHT22;51109;47.414;18.954;2022-12-07T11:39:36;7.10;99.90
64685;DHT22;51109;47.414;18.954;2022-12-07T11:42:16;7.20;99.90
64685;DHT22;51109;47.414;18.954;2022-12-07T11:44:59;7.20;99.90
64685;DHT22;51109;47.414;18.954;2022-12-07T11:50:05;7.20;99.90
64685;DHT22;51109;47.414;18.954;2022-12-07T11:52:55;7.20;99.90
64685;DHT22;51109;47.414;18.954;2022-12-07T11:55:54;7.00;99.90
64685;DHT22;51109;47.414;18.954;2022-12-07T12:06:39;7.20;99.90
64685;DHT22;51109;47.414;18.954;2022-12-07T12:21:25;6.90;99.90
64685;DHT22;51109;47.414;18.954;2022-12-07T12:25:56;7.00;99.90
64685;DHT22;51109;47.414;18.954;2022-12-07T12:28:42;7.00;99.90
64685;DHT22;51109;47.414;18.954;2022-12-07T12:33:50;7.10;99.90
64685;DHT22;51109;47.414;18.954;2022-12-07T12:36:23;7.10;99.90
64685;DHT22;51109;47.414;18.954;2022-12-07T12:47:02;7.20;99.90
64685;DHT22;51109;47.414;18.954;2022-12-07T12:52:00;7.20;99.90
64685;DHT22;51109;47.414;18.954;2022-12-07T12:54:29;7.20;99.90
64685;DHT22;51109;47.414;18.954;2022-12-07T12:57:20;7.20;99.90
64685;DHT22;51109;47.414;18.954;2022-12-07T13:15:52;7.00;99.90
64685;DHT22;51109;47.414;18.954;2022-12-07T13:20:57;6.90;99.90
64685;DHT22;51109;47.414;18.954;2022-12-07T13:26:19;6.90;99.90
64685;DHT22;51109;47.414;18.954;2022-12-07T13:28:48;6.90;99.90
64685;DHT22;51109;47.414;18.954;2022-12-07T13:31:30;6.80;99.90
64685;DHT22;51109;47.414;18.954;2022-12-07T13:33:57;6.70;99.90
64685;DHT22;51109;47.414;18.954;2022-12-07T13:36:29;6.70;99.90
64685;DHT22;51109;47.414;18.954;2022-12-07T13:38:59;6.60;99.90
64685;DHT22;51109;47.414;18.954;2022-12-07T13:41:28;6.60;99.90
64685;DHT22;51109;47.414;18.954;2022-12-07T13:49:26;6.50;99.90
64685;DHT22;51109;47.414;18.954;2022-12-07T13:51:53;6.50;99.90
64685;DHT22;51109;47.414;18.954;2022-12-07T13:54:20;6.40;99.90
64685;DHT22;51109;47.414;18.954;2022-12-07T13:56:51;6.40;99.90
64685;DHT22;51109;47.414;18.954;2022-12-07T13:59:21;6.40;99.90
64685;DHT22;51109;47.414;18.954;2022-12-07T14:01:48;6.30;99.90
64685;DHT22;51109;47.414;18.954;2022-12-07T14:06:52;6.30;99.90
64685;DHT22;51109;47.414;18.954;2022-12-07T14:09:20;6.30;99.90
64685;DHT22;51109;47.414;18.954;2022-12-07T14:11:48;6.20;99.90
64685;DHT22;51109;47.414;18.954;2022-12-07T14:14:19;6.20;99.90
64685;DHT22;51109;47.414;18.954;2022-12-07T14:17:08;6.20;99.90
64685;DHT22;51109;47.414;18.954;2022-12-07T14:19:47;6.20;99.90
64685;DHT22;51109;47.414;18.954;2022-12-07T14:22:38;6.20;99.90
64685;DHT22;51109;47.414;18.954;2022-12-07T14:27:39;6.00;99.90
64685;DHT22;51109;47.414;18.954;2022-12-07T14:30:05;6.10;99.90
64685;DHT22;51109;47.414;18.954;2022-12-07T14:32:34;6.00;99.90
64685;DHT22;51109;47.414;18.954;2022-12-07T14:35:10;6.00;99.90
64685;DHT22;51109;47.414;18.954;2022-12-07T14:37:38;6.00;99.90
64685;DHT22;51109;47.414;18.954;2022-12-07T14:40:05;5.90;99.90
64685;DHT22;51109;47.414;18.954;2022-12-07T14:42:32;5.80;99.90
64685;DHT22;51109;47.414;18.954;2022-12-07T14:44:58;5.70;99.90
64685;DHT22;51109;47.414;18.954;2022-12-07T14:47:25;5.70;99.90
64685;DHT22;51109;47.414;18.954;2022-12-07T14:49:52;5.70;99.90
64685;DHT22;51109;47.414;18.954;2022-12-07T14:52:28;5.70;99.90
64685;DHT22;51109;47.414;18.954;2022-12-07T14:54:55;5.70;99.90
64685;DHT22;51109;47.414;18.954;2022-12-07T14:57:21;5.70;99.90
64685;DHT22;51109;47.414;18.954;2022-12-07T14:59:47;5.60;99.90
64685;DHT22;51109;47.414;18.954;2022-12-07T15:02:14;5.60;99.90
64685;DHT22;51109;47.414;18.954;2022-12-07T15:04:40;5.70;99.90
64685;DHT22;51109;47.414;18.954;2022-12-07T15:07:12;5.60;99.90
64685;DHT22;51109;47.414;18.954;2022-12-07T15:09:41;5.60;99.90
64685;DHT22;51109;47.414;18.954;2022-12-07T15:12:07;5.60;99.90
64685;DHT22;51109;47.414;18.954;2022-12-07T15:14:33;5.50;99.90
64685;DHT22;51109;47.414;18.954;2022-12-07T15:16:59;5.40;99.90
64685;DHT22;51109;47.414;18.954;2022-12-07T15:19:25;5.30;99.90
64685;DHT22;51109;47.414;18.954;2022-12-07T15:21:54;5.20;99.90
64685;DHT22;51109;47.414;18.954;2022-12-07T15:24:20;5.20;99.90
64685;DHT22;51109;47.414;18.954;2022-12-07T15:26:47;5.10;99.90
64685;DHT22;51109;47.414;18.954;2022-12-07T15:29:13;5.00;99.90
64685;DHT22;51109;47.414;18.954;2022-12-07T15:31:40;5.00;99.90
64685;DHT22;51109;47.414;18.954;2022-12-07T15:34:06;4.90;99.90
64685;DHT22;51109;47.414;18.954;2022-12-07T15:36:33;4.70;99.90
64685;DHT22;51109;47.414;18.954;2022-12-07T15:38:59;4.50;99.90
64685;DHT22;51109;47.414;18.954;2022-12-07T15:41:25;4.30;99.90
64685;DHT22;51109;47.414;18.954;2022-12-07T15:43:51;4.10;99.90
64685;DHT22;51109;47.414;18.954;2022-12-07T15:46:38;4.10;99.90
64685;DHT22;51109;47.414;18.954;2022-12-07T15:49:26;4.00;99.90
64685;DHT22;51109;47.414;18.954;2022-12-07T15:51:53;3.80;99.90
64685;DHT22;51109;47.414;18.954;2022-12-07T15:54:25;3.90;99.90
64685;DHT22;51109;47.414;18.954;2022-12-07T15:56:52;3.80;99.90
64685;DHT22;51109;47.414;18.954;2022-12-07T15:59:19;3.70;99.90
64685;DHT22;51109;47.414;18.954;2022-12-07T16:01:45;3.50;99.90
64685;DHT22;51109;47.414;18.954;2022-12-07T16:04:11;3.50;99.90
64685;DHT22;51109;47.414;18.954;2022-12-07T16:06:37;3.60;99.90
64685;DHT22;51109;47.414;18.954;2022-12-07T16:09:03;3.50;99.90
64685;DHT22;51109;47.414;18.954;2022-12-07T16:11:31;3.40;99.90
64685;DHT22;51109;47.414;18.954;2022-12-07T16:13:56;3.30;99.90
64685;DHT22;51109;47.414;18.954;2022-12-07T16:16:22;3.20;99.90
64685;DHT22;51109;47.414;18.954;2022-12-07T16:18:49;3.20;99.90
64685;DHT22;51109;47.414;18.954;2022-12-07T16:21:17;3.10;99.90
64685;DHT22;51109;47.414;18.954;2022-12-07T16:23:43;3.10;99.90
64685;DHT22;51109;47.414;18.954;2022-12-07T16:26:27;3.10;99.90
64685;DHT22;51109;47.414;18.954;2022-12-07T16:28:53;3.10;99.90
64685;DHT22;51109;47.414;18.954;2022-12-07T16:31:21;3.00;99.90
64685;DHT22;51109;47.414;18.954;2022-12-07T16:33:48;3.10;99.90
64685;DHT22;51109;47.414;18.954;2022-12-07T16:36:15;3.00;99.90
64685;DHT22;51109;47.414;18.954;2022-12-07T16:38:42;3.00;99.90
64685;DHT22;51109;47.414;18.954;2022-12-07T16:41:10;3.00;99.90
64685;DHT22;51109;47.414;18.954;2022-12-07T16:43:36;2.90;99.90
64685;DHT22;51109;47.414;18.954;2022-12-07T16:46:03;2.90;99.90
64685;DHT22;51109;47.414;18.954;2022-12-07T16:48:29;2.80;99.90
64685;DHT22;51109;47.414;18.954;2022-12-07T16:50:55;2.80;99.90
64685;DHT22;51109;47.414;18.954;2022-12-07T16:53:23;2.70;99.90
64685;DHT22;51109;47.414;18.954;2022-12-07T16:55:50;2.70;99.90
64685;DHT22;51109;47.414;18.954;2022-12-07T16:58:17;2.60;99.90
64685;DHT22;51109;47.414;18.954;2022-12-07T17:00:43;2.60;99.90
64685;DHT22;51109;47.414;18.954;2022-12-07T17:03:10;2.60;99.90
64685;DHT22;51109;47.414;18.954;2022-12-07T17:05:41;2.60;99.90
64685;DHT22;51109;47.414;18.954;2022-12-07T17:08:08;2.60;99.90
64685;DHT22;51109;47.414;18.954;2022-12-07T17:10:36;2.60;99.90
64685;DHT22;51109;47.414;18.954;2022-12-07T17:13:06;2.60;99.90
64685;DHT22;51109;47.414;18.954;2022-12-07T17:15:59;2.60;99.90
64685;DHT22;51109;47.414;18.954;2022-12-07T17:18:30;2.50;99.90
64685;DHT22;51109;47.414;18.954;2022-12-07T17:21:05;2.50;99.90
64685;DHT22;51109;47.414;18.954;2022-12-07T17:23:33;2.70;99.90
64685;DHT22;51109;47.414;18.954;2022-12-07T17:26:11;2.80;99.90
64685;DHT22;51109;47.414;18.954;2022-12-07T17:28:38;2.80;99.90
64685;DHT22;51109;47.414;18.954;2022-12-07T17:31:06;2.70;99.90
64685;DHT22;51109;47.414;18.954;2022-12-07T17:33:32;2.70;99.90
64685;DHT22;51109;47.414;18.954;2022-12-07T17:35:59;2.70;99.90
64685;DHT22;51109;47.414;18.954;2022-12-07T17:38:27;2.70;99.90
64685;DHT22;51109;47.414;18.954;2022-12-07T17:40:53;2.60;99.90
64685;DHT22;51109;47.414;18.954;2022-12-07T17:43:19;2.60;99.90
64685;DHT22;51109;47.414;18.954;2022-12-07T17:45:45;2.60;99.90
64685;DHT22;51109;47.414;18.954;2022-12-07T17:48:11;2.60;99.90
64685;DHT22;51109;47.414;18.954;2022-12-07T17:50:38;2.70;99.90
64685;DHT22;51109;47.414;18.954;2022-12-07T17:53:23;2.60;99.90
64685;DHT22;51109;47.414;18.954;2022-12-07T17:55:52;2.50;99.90
64685;DHT22;51109;47.414;18.954;2022-12-07T17:58:19;2.50;99.90
64685;DHT22;51109;47.414;18.954;2022-12-07T18:00:45;2.40;99.90
64685;DHT22;51109;47.414;18.954;2022-12-07T18:03:10;2.30;99.90
64685;DHT22;51109;47.414;18.954;2022-12-07T18:05:37;2.30;99.90
64685;DHT22;51109;47.414;18.954;2022-12-07T18:08:04;2.30;99.90
64685;DHT22;51109;47.414;18.954;2022-12-07T18:10:31;2.30;99.90
64685;DHT22;51109;47.414;18.954;2022-12-07T18:12:57;2.20;99.90
64685;DHT22;51109;47.414;18.954;2022-12-07T18:15:42;2.20;99.90
64685;DHT22;51109;47.414;18.954;2022-12-07T18:18:08;2.00;99.90